Pernille — 5BNZ2 — position and weather

sailwx.info

Track history (hours):
 
Tides and Currents Weather Stations Pressure Air Temp Water Temp Dewpoint Dewpoint Depression Visibility Wind Speed Wind Dir Waves Ship Positions

Pernille

Last reported at 2017-Oct-20 12:46 UTC. Time now 2017-Oct-20 19:59 UTC.
Position N 36°40' W 008°51'.

Length 83 m; draft 5.4 m.

Type: Cargo ship. MMSI: 212662000.

Date/timePositionNaut miles runAvg speedWind from/ knotsBaromVisibWave heightAir tempDewpointWater temp
2017-Oct-20 12:46N 36°40' W 008°51'16110.4
2017-Oct-19 21:16N 35°58' W 005°38'2 8.9
2017-Oct-19 21:01N 35°58' W 005°35'4 7.9
2017-Oct-19 20:30N 35°60' W 005°31'4 7.1
2017-Oct-19 20:00N 36°01' W 005°27'3 6.4
2017-Oct-19 19:30N 36°01' W 005°23'3 6.2
2017-Oct-19 19:00N 36°02' W 005°19'4 7.6
2017-Oct-19 18:26N 36°02' W 005°14'224 9.2
2017-Oct-18 18:09N 37°21' W 000°52'4 9.5
2017-Oct-18 17:45N 37°23' W 000°49'210.1
2017-Oct-18 17:30N 37°25' W 000°47'6 9.8
2017-Oct-18 16:52N 37°29' W 000°41'5 9.6
2017-Oct-18 16:22N 37°32' W 000°36'4 9.8
2017-Oct-18 16:00N 37°35' W 000°33'510.1
2017-Oct-18 15:30N 37°39' W 000°29'510.3
2017-Oct-18 15:00N 37°43' W 000°26'1110.4
2017-Oct-18 13:56N 37°53' W 000°19'410.2
2017-Oct-18 13:30N 37°57' W 000°16'  
2017-Oct-13 21:58N 41°13' E 002°02'510.1
2017-Oct-13 21:31N 41°11' E 001°56'510.1
2017-Oct-13 21:01N 41°09' E 001°50'510.3
2017-Oct-13 20:30N 41°08' E 001°43'510.3
2017-Oct-13 20:00N 41°07' E 001°37'  
Track history (hours):
 
Tides and Currents Weather Stations Pressure Air Temp Water Temp Dewpoint Dewpoint Depression Visibility Wind Speed Wind Dir Waves Ship Positions

Pernille

Last reported at 2017-Oct-20 12:46 UTC. Time now 2017-Oct-20 19:59 UTC.
Position N 36°40' W 008°51'.

Length 83 m; draft 5.4 m.

Type: Cargo ship. MMSI: 212662000.

Date/timePositionNaut miles runAvg speedWind from/ knotsBaromVisibWave heightAir tempDewpointWater temp
2017-Oct-20 12:46N 36°40' W 008°51'16110.4
2017-Oct-19 21:16N 35°58' W 005°38'2 8.9
2017-Oct-19 21:01N 35°58' W 005°35'4 7.9
2017-Oct-19 20:30N 35°60' W 005°31'4 7.1
2017-Oct-19 20:00N 36°01' W 005°27'3 6.4
2017-Oct-19 19:30N 36°01' W 005°23'3 6.2
2017-Oct-19 19:00N 36°02' W 005°19'4 7.6
2017-Oct-19 18:26N 36°02' W 005°14'224 9.2
2017-Oct-18 18:09N 37°21' W 000°52'4 9.5
2017-Oct-18 17:45N 37°23' W 000°49'210.1
2017-Oct-18 17:30N 37°25' W 000°47'6 9.8
2017-Oct-18 16:52N 37°29' W 000°41'5 9.6
2017-Oct-18 16:22N 37°32' W 000°36'4 9.8
2017-Oct-18 16:00N 37°35' W 000°33'510.1
2017-Oct-18 15:30N 37°39' W 000°29'510.3
2017-Oct-18 15:00N 37°43' W 000°26'1110.4
2017-Oct-18 13:56N 37°53' W 000°19'410.2
2017-Oct-18 13:30N 37°57' W 000°16'  
2017-Oct-13 21:58N 41°13' E 002°02'510.1
2017-Oct-13 21:31N 41°11' E 001°56'510.1
2017-Oct-13 21:01N 41°09' E 001°50'510.3
2017-Oct-13 20:30N 41°08' E 001°43'510.3
2017-Oct-13 20:00N 41°07' E 001°37'  

Dump ship's entire track history